Montopolis, Texas
Current Conditions -  °F | °C
As of 5:53 AM on Thursday 23 Oct 2014 (Local Time) from KAUS Reporting Station
Broken Clouds Broken Clouds  
Wind Chill: 63°   Ceiling: 20000
Heat Index: 63°   Visibility: 10mi
Dew Point: 62°   Wind: 3mph
Humidity: 97%   Direction: 250°WSW
Pressure: 30.1"   Gusts: NA
Location:  30.2284°N, 97.7133°W
Report Text: KAUS 231053Z 25003KT 10SM BKN200 17/17 A3010 RMK AO2 SLP184 T01720167
Loading
Personal Weather Stations






























Interactive Weather Map New forecast layout! Learn more

10-Day Weather Forecast

Advertisements
Track Severe Weather on mobile